createdAt,value
2023-01-25T00:01:45.601Z,24.20
2023-01-25T00:04:12.647Z,25.23
2023-01-25T00:06:39.350Z,24.30
2023-01-25T00:09:06.003Z,24.38
2023-01-25T00:11:32.657Z,24.63
2023-01-25T00:13:59.240Z,24.25
2023-01-25T00:16:26.006Z,24.77
2023-01-25T00:18:53.902Z,24.17
2023-01-25T00:21:22.770Z,25.88
2023-01-25T00:23:49.737Z,25.52
2023-01-25T00:26:16.884Z,25.08
2023-01-25T00:28:43.855Z,25.83
2023-01-25T00:31:17.295Z,24.27
2023-01-25T00:33:51.195Z,26.27
2023-01-25T00:36:33.685Z,24.65
2023-01-25T00:39:00.759Z,26.42
2023-01-25T00:41:27.406Z,25.10
2023-01-25T00:43:54.142Z,25.05
2023-01-25T00:46:20.791Z,25.80
2023-01-25T00:48:47.433Z,25.00
2023-01-25T00:51:15.004Z,24.73
2023-01-25T00:53:43.051Z,26.70
2023-01-25T00:56:09.658Z,25.33
2023-01-25T00:58:36.290Z,26.52
2023-01-25T01:01:07.077Z,26.65
2023-01-25T01:03:33.779Z,25.77
2023-01-25T01:06:02.549Z,27.35
2023-01-25T01:08:29.519Z,26.58
2023-01-25T01:11:01.399Z,27.98
2023-01-25T01:13:28.439Z,27.23
2023-01-25T01:15:55.362Z,28.45
2023-01-25T01:18:23.292Z,27.95
2023-01-25T01:20:51.065Z,27.80
2023-01-25T01:23:18.365Z,27.60
2023-01-25T01:25:44.959Z,27.73
2023-01-25T01:28:13.666Z,28.38
2023-01-25T01:30:40.322Z,28.92
2023-01-25T01:33:07.067Z,27.85
2023-01-25T01:35:33.663Z,27.23
2023-01-25T01:38:00.372Z,29.23
2023-01-25T01:40:26.940Z,28.20
2023-01-25T01:42:58.640Z,28.08
2023-01-25T01:45:48.333Z,26.92
2023-01-25T01:48:27.425Z,27.40
2023-01-25T01:50:58.751Z,27.42
2023-01-25T01:53:26.827Z,27.00
2023-01-25T01:55:59.247Z,25.23
2023-01-25T01:58:26.798Z,26.23
2023-01-25T02:00:55.556Z,26.05
2023-01-25T02:03:23.032Z,25.20
2023-01-25T02:05:56.397Z,24.65
2023-01-25T02:08:24.893Z,25.00
2023-01-25T02:10:51.574Z,26.65
2023-01-25T02:13:18.958Z,25.70
2023-01-25T02:15:47.644Z,27.75
2023-01-25T02:18:17.550Z,28.15
2023-01-25T02:20:46.019Z,26.45
2023-01-25T02:23:21.053Z,26.13
2023-01-25T02:25:49.432Z,27.13
2023-01-25T02:28:21.103Z,27.85
2023-01-25T02:30:48.909Z,26.92
2023-01-25T02:33:16.223Z,28.48
2023-01-25T02:35:46.735Z,27.50
2023-01-25T02:38:17.377Z,27.73
2023-01-25T02:40:47.489Z,26.83
2023-01-25T02:43:19.055Z,29.33
2023-01-25T02:45:50.631Z,27.95
2023-01-25T02:48:17.278Z,26.83
2023-01-25T02:50:44.597Z,28.67
2023-01-25T02:53:11.897Z,28.02
2023-01-25T02:55:38.537Z,28.35
2023-01-25T02:58:07.623Z,27.95
2023-01-25T03:00:35.966Z,28.80
2023-01-25T03:03:03.521Z,28.30
2023-01-25T03:05:30.111Z,28.55
2023-01-25T03:07:56.776Z,29.45
2023-01-25T03:10:24.348Z,28.08
2023-01-25T03:12:53.495Z,28.85
2023-01-25T03:15:21.788Z,29.58
2023-01-25T03:17:49.853Z,28.42
2023-01-25T03:20:17.584Z,28.85
2023-01-25T03:22:44.234Z,29.80
2023-01-25T03:25:11.152Z,29.40
2023-01-25T03:27:42.689Z,27.48
2023-01-25T03:30:11.911Z,28.55
2023-01-25T03:32:38.494Z,28.35
2023-01-25T03:35:10.870Z,29.08
2023-01-25T03:37:38.227Z,28.40
2023-01-25T03:40:06.883Z,30.52
2023-01-25T03:42:33.713Z,29.92
2023-01-25T03:45:00.942Z,27.75
2023-01-25T03:47:28.005Z,27.95
2023-01-25T03:49:55.532Z,28.73
2023-01-25T03:52:23.776Z,29.80
2023-01-25T03:54:50.765Z,29.30
2023-01-25T03:57:18.424Z,29.98
2023-01-25T03:59:51.750Z,29.52
2023-01-25T04:02:19.105Z,28.45
2023-01-25T04:04:46.022Z,27.92
2023-01-25T04:07:15.366Z,29.88
2023-01-25T04:09:43.326Z,29.77
2023-01-25T04:12:11.621Z,30.30
2023-01-25T04:14:44.444Z,30.17
2023-01-25T04:17:16.202Z,29.92
2023-01-25T04:19:54.920Z,30.52
2023-01-25T04:22:26.162Z,30.02
2023-01-25T04:24:56.656Z,30.70
2023-01-25T04:27:23.689Z,30.85
2023-01-25T04:29:59.860Z,30.75
2023-01-25T04:32:27.406Z,29.63
2023-01-25T04:34:55.104Z,29.35
2023-01-25T04:37:24.529Z,30.75
2023-01-25T04:39:57.060Z,30.65
2023-01-25T04:42:24.643Z,30.83
2023-01-25T04:44:54.620Z,31.52
2023-01-25T04:47:21.423Z,31.58
2023-01-25T04:49:48.342Z,32.65
2023-01-25T04:52:18.011Z,30.00
2023-01-25T04:54:44.804Z,30.45
2023-01-25T04:57:13.363Z,30.73
2023-01-25T04:59:44.000Z,31.45
2023-01-25T05:02:10.961Z,30.92
2023-01-25T05:04:37.709Z,29.55
2023-01-25T05:07:04.372Z,31.05
2023-01-25T05:09:31.318Z,32.05
2023-01-25T05:11:58.291Z,28.98
2023-01-25T05:14:33.101Z,29.42
2023-01-25T05:17:00.618Z,28.38
2023-01-25T05:19:27.369Z,28.50
2023-01-25T05:21:58.048Z,28.70
2023-01-25T05:24:27.212Z,27.30
2023-01-25T05:26:54.071Z,28.80
2023-01-25T05:29:21.351Z,30.98
2023-01-25T05:31:55.092Z,28.50
2023-01-25T05:34:22.095Z,28.13
2023-01-25T05:36:48.981Z,28.48
2023-01-25T05:39:17.312Z,28.25
2023-01-25T05:41:46.409Z,27.80
2023-01-25T05:44:13.714Z,29.67
2023-01-25T05:46:45.448Z,29.00
2023-01-25T05:49:14.059Z,27.05
2023-01-25T05:51:41.630Z,27.35
2023-01-25T05:54:12.732Z,28.35
2023-01-25T05:56:41.456Z,27.85
2023-01-25T05:59:10.897Z,27.50
2023-01-25T06:01:37.762Z,28.00
2023-01-25T06:04:04.727Z,29.05
2023-01-25T06:06:32.766Z,28.15
2023-01-25T06:09:00.623Z,29.15
2023-01-25T06:11:27.379Z,29.02
2023-01-25T06:13:54.992Z,29.95
2023-01-25T06:16:21.728Z,27.58
2023-01-25T06:19:06.291Z,29.40
2023-01-25T06:21:53.162Z,35.45
2023-01-25T06:24:19.872Z,36.42
2023-01-25T06:26:46.478Z,36.00
2023-01-25T06:29:13.253Z,37.85
2023-01-25T06:31:40.081Z,39.38
2023-01-25T06:34:06.875Z,37.88
2023-01-25T06:36:33.537Z,36.55
2023-01-25T06:39:01.839Z,34.97
2023-01-25T06:41:28.465Z,35.63
2023-01-25T06:43:55.096Z,35.40
2023-01-25T06:46:21.929Z,32.90
2023-01-25T06:48:48.481Z,32.20
2023-01-25T06:51:16.617Z,32.55
2023-01-25T06:53:45.715Z,33.40
2023-01-25T06:56:15.969Z,34.55
2023-01-25T06:58:42.552Z,34.60
2023-01-25T07:01:13.431Z,34.70
2023-01-25T07:03:40.442Z,40.13
2023-01-25T07:06:09.114Z,39.10
2023-01-25T07:08:36.889Z,38.08
2023-01-25T07:11:06.298Z,38.22
2023-01-25T07:13:34.677Z,38.13
2023-01-25T07:16:03.716Z,38.28
2023-01-25T07:18:31.284Z,38.13
2023-01-25T07:21:03.322Z,38.35
2023-01-25T07:23:31.341Z,38.45
2023-01-25T07:25:58.023Z,38.28
2023-01-25T07:28:24.848Z,37.80
2023-01-25T07:30:52.807Z,40.63
2023-01-25T07:33:19.757Z,42.92
2023-01-25T07:35:46.312Z,44.78
2023-01-25T07:38:13.957Z,42.70
2023-01-25T07:40:41.421Z,44.25
2023-01-25T07:43:08.122Z,42.95
2023-01-25T07:45:36.616Z,42.75
2023-01-25T07:48:08.678Z,43.70
2023-01-25T07:50:35.369Z,42.55
2023-01-25T07:53:02.171Z,41.78
2023-01-25T07:55:28.783Z,41.13
2023-01-25T07:57:55.364Z,41.90
2023-01-25T08:00:24.028Z,42.50
2023-01-25T08:02:51.824Z,41.60
2023-01-25T08:05:19.893Z,44.33
2023-01-25T08:07:47.461Z,43.03
2023-01-25T08:10:14.249Z,42.20
2023-01-25T08:12:44.730Z,43.75
2023-01-25T08:15:12.131Z,42.50
2023-01-25T08:17:38.884Z,42.05
2023-01-25T08:20:06.673Z,43.60
2023-01-25T08:22:34.715Z,43.28
2023-01-25T08:25:01.281Z,43.67
2023-01-25T08:27:27.943Z,41.58
2023-01-25T08:29:54.509Z,46.50
2023-01-25T08:32:21.204Z,45.10
2023-01-25T08:34:47.797Z,45.00
2023-01-25T08:37:14.359Z,44.65
2023-01-25T08:39:42.330Z,44.75
2023-01-25T08:42:08.942Z,45.00
2023-01-25T08:44:35.488Z,45.60
2023-01-25T08:47:02.053Z,45.22
2023-01-25T08:49:28.547Z,44.78
2023-01-25T08:51:55.149Z,47.22
2023-01-25T08:54:21.704Z,46.50
2023-01-25T08:56:49.683Z,48.60
2023-01-25T08:59:16.328Z,49.30
2023-01-25T09:01:42.887Z,50.15
2023-01-25T09:04:09.529Z,49.38
2023-01-25T09:06:36.260Z,49.85
2023-01-25T09:09:03.309Z,49.88
2023-01-25T09:11:29.935Z,51.92
2023-01-25T09:13:57.912Z,52.80
2023-01-25T09:16:25.550Z,49.60
2023-01-25T09:18:52.167Z,52.60
2023-01-25T09:21:19.117Z,51.80
2023-01-25T09:24:04.538Z,50.83
2023-01-25T09:26:33.352Z,52.00
2023-01-25T09:29:01.358Z,52.13
2023-01-25T09:31:28.208Z,50.40
2023-01-25T09:34:10.036Z,49.47
2023-01-25T09:36:37.183Z,51.15
2023-01-25T09:39:04.318Z,53.90
2023-01-25T09:41:49.155Z,52.22
2023-01-25T09:44:32.191Z,51.00
2023-01-25T09:49:45.050Z,48.40
2023-01-25T09:52:30.498Z,48.42
2023-01-25T09:54:58.132Z,48.85
2023-01-25T09:57:29.578Z,50.08
2023-01-25T10:00:02.073Z,49.92
2023-01-25T10:02:47.579Z,50.92
2023-01-25T10:05:18.978Z,49.67
2023-01-25T10:07:56.640Z,50.67
2023-01-25T10:10:29.894Z,50.00
2023-01-25T10:12:56.626Z,50.17
2023-01-25T10:15:31.052Z,52.45
2023-01-25T10:18:02.353Z,52.78
2023-01-25T10:20:40.209Z,52.20
2023-01-25T10:23:34.095Z,49.25
2023-01-25T10:26:04.698Z,50.80
2023-01-25T10:28:40.465Z,49.85
2023-01-25T10:31:17.189Z,50.13
2023-01-25T10:33:45.607Z,49.80
2023-01-25T10:36:14.579Z,48.78
2023-01-25T10:38:42.680Z,51.85
2023-01-25T10:41:14.426Z,53.30
2023-01-25T10:43:41.029Z,50.75
2023-01-25T10:46:19.113Z,50.72
2023-01-25T10:48:45.849Z,50.03
2023-01-25T10:51:28.998Z,48.53
2023-01-25T10:54:01.150Z,52.75
2023-01-25T10:59:08.522Z,47.88
2023-01-25T11:01:37.267Z,48.53
2023-01-25T11:04:29.454Z,48.17
2023-01-25T11:06:56.696Z,48.78
2023-01-25T11:09:34.651Z,50.22
2023-01-25T11:12:03.265Z,50.83
2023-01-25T11:14:31.074Z,49.63
2023-01-25T11:17:03.342Z,49.33
2023-01-25T11:19:34.433Z,50.80
2023-01-25T11:22:02.576Z,49.95
2023-01-25T11:24:31.127Z,51.38
2023-01-25T11:27:18.051Z,47.95
2023-01-25T11:29:44.863Z,52.15
2023-01-25T11:32:17.635Z,49.60
2023-01-25T11:34:44.378Z,51.05
2023-01-25T11:37:28.598Z,50.83
2023-01-25T11:40:04.367Z,50.45
2023-01-25T11:42:40.052Z,50.28
2023-01-25T11:45:32.883Z,47.92
2023-01-25T11:48:22.427Z,50.75
2023-01-25T11:50:58.956Z,49.35
2023-01-25T11:53:38.223Z,49.55
2023-01-25T11:56:15.144Z,51.15
2023-01-25T11:58:58.258Z,50.80
2023-01-25T12:01:33.996Z,50.30
2023-01-25T12:04:33.938Z,50.60
2023-01-25T12:07:03.507Z,51.70
2023-01-25T12:10:02.212Z,50.20
2023-01-25T12:12:41.588Z,51.80
2023-01-25T12:15:49.831Z,52.13
2023-01-25T12:18:53.933Z,48.50
2023-01-25T12:21:36.366Z,50.95
2023-01-25T12:24:26.414Z,50.95
2023-01-25T12:27:05.856Z,49.70
2023-01-25T12:29:37.736Z,48.00
2023-01-25T12:32:10.988Z,48.53
2023-01-25T12:34:39.970Z,50.83
2023-01-25T12:37:15.055Z,51.83
2023-01-25T12:39:47.992Z,50.67
2023-01-25T12:44:47.703Z,49.30
2023-01-25T12:47:21.198Z,47.63
2023-01-25T12:49:53.744Z,50.30
2023-01-25T12:52:27.939Z,50.60
2023-01-25T12:54:57.257Z,51.50
2023-01-25T12:57:30.647Z,50.80
2023-01-25T13:00:05.010Z,50.42
2023-01-25T13:03:06.294Z,52.22
2023-01-25T13:05:39.402Z,51.38
2023-01-25T13:08:30.758Z,50.95
2023-01-25T13:11:09.644Z,47.38
2023-01-25T13:13:36.369Z,49.35
2023-01-25T13:16:25.271Z,50.30
2023-01-25T13:18:51.995Z,50.22
2023-01-25T13:21:42.344Z,50.90
2023-01-25T13:24:18.973Z,47.05
2023-01-25T13:27:00.011Z,50.67
2023-01-25T13:29:58.109Z,49.22
2023-01-25T13:32:59.242Z,49.03
2023-01-25T13:35:42.969Z,49.08
2023-01-25T13:38:34.330Z,49.83
2023-01-25T13:41:12.353Z,49.33
2023-01-25T13:43:41.715Z,52.58
2023-01-25T13:46:12.137Z,51.60
2023-01-25T13:48:47.904Z,49.10
2023-01-25T13:51:18.279Z,51.35
2023-01-25T13:53:55.642Z,53.97
2023-01-25T13:56:30.154Z,52.75
2023-01-25T13:58:56.823Z,49.90
2023-01-25T14:01:23.846Z,53.15
2023-01-25T14:03:54.755Z,51.28
2023-01-25T14:06:24.699Z,52.60
2023-01-25T14:08:53.288Z,51.90
2023-01-25T14:11:21.156Z,54.58
2023-01-25T14:14:01.329Z,49.85
2023-01-25T14:16:28.910Z,52.20
2023-01-25T14:18:57.848Z,50.33
2023-01-25T14:21:25.687Z,51.67
2023-01-25T14:23:52.349Z,48.55
2023-01-25T14:26:24.460Z,49.53
2023-01-25T14:29:01.077Z,50.28
2023-01-25T14:31:34.372Z,48.72
2023-01-25T14:34:01.160Z,49.63
2023-01-25T14:36:29.000Z,49.45
2023-01-25T14:38:56.195Z,49.50
2023-01-25T14:41:29.084Z,50.45
2023-01-25T14:43:57.402Z,48.92
2023-01-25T14:46:31.014Z,48.72
2023-01-25T14:49:17.427Z,48.42
2023-01-25T14:51:46.693Z,50.78
2023-01-25T14:54:17.593Z,51.45
2023-01-25T14:56:46.268Z,52.33
2023-01-25T14:59:27.711Z,50.67
2023-01-25T15:01:58.810Z,48.97
2023-01-25T15:04:25.466Z,51.58
2023-01-25T15:06:53.663Z,48.85
2023-01-25T15:09:32.186Z,51.63
2023-01-25T15:12:00.427Z,51.40
2023-01-25T15:14:27.047Z,54.10
2023-01-25T15:16:55.247Z,50.28
2023-01-25T15:19:27.737Z,52.28
2023-01-25T15:21:55.713Z,51.65
2023-01-25T15:24:22.767Z,52.00
2023-01-25T15:26:51.217Z,53.42
2023-01-25T15:29:19.372Z,53.10
2023-01-25T15:31:46.898Z,50.05
2023-01-25T15:34:18.392Z,54.60
2023-01-25T15:36:45.040Z,51.35
2023-01-25T15:39:13.103Z,50.83
2023-01-25T15:41:39.797Z,53.03
2023-01-25T15:44:07.119Z,52.40
2023-01-25T15:46:33.939Z,54.85
2023-01-25T15:49:00.798Z,53.30
2023-01-25T15:51:28.752Z,56.33
2023-01-25T15:53:55.332Z,51.25
2023-01-25T15:56:24.855Z,51.15
2023-01-25T15:58:52.974Z,51.45
2023-01-25T16:01:20.223Z,51.55
2023-01-25T16:03:46.830Z,51.13
2023-01-25T16:06:36.754Z,52.78
2023-01-25T16:09:11.377Z,50.72
2023-01-25T16:11:37.999Z,49.78
2023-01-25T16:14:04.591Z,51.50
2023-01-25T16:16:40.127Z,50.60
2023-01-25T16:19:06.939Z,51.28
2023-01-25T16:21:34.872Z,49.50
2023-01-25T16:24:01.528Z,52.67
2023-01-25T16:26:28.527Z,49.90
2023-01-25T16:28:55.343Z,49.22
2023-01-25T16:31:32.346Z,51.83
2023-01-25T16:34:00.246Z,49.45
2023-01-25T16:36:26.976Z,50.20
2023-01-25T16:38:55.151Z,48.05
2023-01-25T16:41:21.757Z,48.78
2023-01-25T16:43:48.942Z,51.03
2023-01-25T16:46:17.968Z,47.45
2023-01-25T16:48:46.275Z,49.10
2023-01-25T16:51:16.787Z,46.38
2023-01-25T16:53:43.619Z,48.00
2023-01-25T16:56:16.299Z,48.90
2023-01-25T16:58:42.895Z,47.60
2023-01-25T17:01:10.028Z,49.15
2023-01-25T17:03:36.748Z,48.22
2023-01-25T17:06:03.645Z,47.55
2023-01-25T17:08:30.382Z,47.53
2023-01-25T17:10:57.043Z,44.10
2023-01-25T17:13:24.995Z,46.47
2023-01-25T17:15:51.724Z,46.05
2023-01-25T17:18:18.423Z,47.58
2023-01-25T17:20:45.019Z,46.97
2023-01-25T17:23:11.653Z,47.53
2023-01-25T17:25:40.513Z,48.03
2023-01-25T17:28:07.279Z,51.10
2023-01-25T17:30:35.298Z,45.65
2023-01-25T17:33:01.997Z,47.42
2023-01-25T17:35:28.574Z,48.08
2023-01-25T17:37:55.123Z,46.90
2023-01-25T17:40:21.731Z,46.13
2023-01-25T17:42:48.334Z,46.15
2023-01-25T17:45:14.893Z,46.38
2023-01-25T17:47:42.867Z,46.65
2023-01-25T17:50:10.737Z,47.80
2023-01-25T17:52:37.599Z,45.40
2023-01-25T17:55:04.809Z,46.22
2023-01-25T17:57:31.445Z,45.33
2023-01-25T17:59:58.140Z,44.47
2023-01-25T18:02:24.876Z,43.78
2023-01-25T18:04:52.798Z,47.60
2023-01-25T18:07:19.446Z,44.10
2023-01-25T18:09:45.994Z,44.72
2023-01-25T18:12:12.597Z,41.28
2023-01-25T18:14:39.197Z,41.83
2023-01-25T18:17:05.918Z,41.47
2023-01-25T18:19:32.506Z,40.72
2023-01-25T18:22:00.531Z,41.20
2023-01-25T18:24:30.951Z,43.85
2023-01-25T18:27:01.415Z,42.42
2023-01-25T18:29:45.243Z,42.78
2023-01-25T18:32:12.147Z,38.97
2023-01-25T18:34:38.786Z,42.60
2023-01-25T18:37:07.057Z,40.38
2023-01-25T18:39:33.583Z,40.63
2023-01-25T18:42:00.159Z,41.53
2023-01-25T18:44:26.754Z,41.53
2023-01-25T18:46:53.440Z,41.65
2023-01-25T18:49:20.017Z,41.85
2023-01-25T18:52:02.252Z,43.33
2023-01-25T18:54:34.828Z,41.53
2023-01-25T18:57:01.621Z,41.45
2023-01-25T18:59:28.282Z,42.70
2023-01-25T19:01:54.977Z,42.60
2023-01-25T19:04:21.720Z,41.78
2023-01-25T19:06:48.252Z,42.42
2023-01-25T19:09:14.864Z,41.35
2023-01-25T19:11:42.809Z,43.00
2023-01-25T19:14:09.568Z,41.78
2023-01-25T19:16:36.185Z,39.45
2023-01-25T19:19:02.870Z,40.15
2023-01-25T19:21:29.468Z,41.03
2023-01-25T19:23:56.409Z,39.35
2023-01-25T19:26:24.915Z,42.10
2023-01-25T19:28:53.848Z,41.78
2023-01-25T19:31:22.685Z,40.10
2023-01-25T19:33:54.489Z,40.00
2023-01-25T19:36:21.791Z,41.17
2023-01-25T19:38:49.455Z,42.15
2023-01-25T19:41:18.074Z,42.60
2023-01-25T19:43:45.194Z,42.90
2023-01-25T19:46:14.895Z,49.80
2023-01-25T19:48:42.802Z,43.88
2023-01-25T19:51:10.506Z,43.13
2023-01-25T19:53:37.584Z,44.53
2023-01-25T19:56:05.262Z,47.03
2023-01-25T19:58:31.920Z,46.53
2023-01-25T20:01:05.520Z,46.13
2023-01-25T20:03:33.557Z,45.22
2023-01-25T20:06:00.716Z,44.65
2023-01-25T20:08:28.580Z,47.03
2023-01-25T20:10:57.838Z,47.92
2023-01-25T20:13:24.817Z,53.10
2023-01-25T20:15:51.514Z,47.10
2023-01-25T20:18:18.272Z,44.33
2023-01-25T20:20:54.375Z,46.08
2023-01-25T20:23:21.153Z,46.33
2023-01-25T20:25:55.706Z,46.90
2023-01-25T20:28:22.335Z,44.38
2023-01-25T20:30:49.070Z,46.33
2023-01-25T20:33:15.767Z,46.38
2023-01-25T20:35:42.330Z,47.55
2023-01-25T20:38:10.388Z,46.78
2023-01-25T20:40:36.981Z,44.97
2023-01-25T20:43:03.693Z,46.88
2023-01-25T20:45:30.314Z,47.80
2023-01-25T20:47:56.996Z,48.00
2023-01-25T20:50:23.999Z,43.67
2023-01-25T20:52:50.653Z,46.50
2023-01-25T20:55:19.982Z,43.88
2023-01-25T20:57:46.659Z,43.83
2023-01-25T21:00:14.400Z,44.28
2023-01-25T21:02:41.073Z,46.47
2023-01-25T21:05:08.784Z,46.60
2023-01-25T21:07:35.599Z,53.95
2023-01-25T21:10:02.208Z,47.42
2023-01-25T21:12:30.177Z,45.03
2023-01-25T21:14:56.806Z,48.60
2023-01-25T21:17:23.503Z,48.22
2023-01-25T21:19:50.093Z,47.40
2023-01-25T21:22:16.718Z,46.72
2023-01-25T21:24:43.312Z,45.25
2023-01-25T21:27:09.889Z,44.25
2023-01-25T21:29:37.835Z,44.03
2023-01-25T21:32:04.806Z,44.05
2023-01-25T21:34:31.487Z,41.60
2023-01-25T21:36:58.078Z,41.20
2023-01-25T21:39:24.838Z,42.00
2023-01-25T21:41:51.438Z,41.58
2023-01-25T21:44:18.007Z,41.17
2023-01-25T21:47:12.603Z,40.58
2023-01-25T21:49:33.682Z,43.72
2023-01-25T21:52:01.686Z,41.97
2023-01-25T21:54:30.071Z,43.88
2023-01-25T21:56:58.835Z,42.15
2023-01-25T21:59:25.923Z,51.55
2023-01-25T22:01:55.306Z,47.03
2023-01-25T22:04:23.707Z,42.90
2023-01-25T22:06:50.925Z,42.83
2023-01-25T22:09:18.231Z,40.25
2023-01-25T22:11:45.409Z,43.00
2023-01-25T22:14:12.638Z,40.97
2023-01-25T22:16:39.248Z,40.38
2023-01-25T22:19:07.453Z,40.20
2023-01-25T22:21:34.276Z,42.60
2023-01-25T22:24:03.903Z,38.58
2023-01-25T22:26:39.572Z,39.75
2023-01-25T22:29:06.269Z,40.25
2023-01-25T22:31:33.122Z,41.72
2023-01-25T22:34:00.158Z,39.88
2023-01-25T22:36:29.862Z,40.65
2023-01-25T22:38:57.188Z,38.88
2023-01-25T22:41:26.113Z,37.90
2023-01-25T22:43:53.737Z,41.03
2023-01-25T22:46:22.493Z,41.30
2023-01-25T22:48:49.299Z,41.75
2023-01-25T22:51:18.251Z,39.58
2023-01-25T22:53:46.702Z,42.22
2023-01-25T22:56:15.184Z,41.30
2023-01-25T22:58:43.687Z,41.65
2023-01-25T23:01:11.229Z,42.28
2023-01-25T23:03:38.352Z,42.80
2023-01-25T23:06:07.221Z,42.00
2023-01-25T23:08:36.218Z,41.78
2023-01-25T23:11:06.485Z,40.95
2023-01-25T23:13:33.456Z,41.13
2023-01-25T23:16:02.069Z,39.78
2023-01-25T23:18:28.759Z,44.05
2023-01-25T23:20:55.347Z,43.53
2023-01-25T23:23:22.051Z,40.42
2023-01-25T23:25:48.722Z,39.45
2023-01-25T23:28:16.729Z,44.28
2023-01-25T23:30:43.371Z,42.33
2023-01-25T23:33:10.105Z,41.67
2023-01-25T23:35:36.684Z,39.83
2023-01-25T23:38:03.267Z,40.70
2023-01-25T23:40:29.992Z,40.55
2023-01-25T23:42:56.637Z,42.40
2023-01-25T23:45:24.817Z,40.65
2023-01-25T23:47:51.514Z,39.15
2023-01-25T23:50:18.210Z,40.65
2023-01-25T23:52:44.927Z,39.88
2023-01-25T23:55:11.572Z,40.03
2023-01-25T23:57:38.181Z,39.17
